Baltimore, Maryland
Traffic Map
Current Weather Conditions
Baltimore, Maryland
Overcast Drizzle
Overcast
62°
Feels Like: 62°
Wind Chill: 62° Ceiling: 800
Heat Index: 62° Visibility: 2mi
Dew Point: 60° Wind: 14mph
Humidity: 93% Direction: 50° (NE)
Pressure: 30.16in Gusts: 0mph
Raw Report DataKBWI 301754Z 05012KT 2SM -DZ BR BKN008 OVC013 17/16 A3016 RMK AO2 SLP211 P0001 6//// T01670156 10167 20144 58009
Traffic Incident Summary
Active as of:
Severity:
Category:
InformationThere was an issue retrieving the traffic information for this location. Please try a different location or try again shortly.
Advertisements
Track Severe Weather on mobile